sensor_id;sensor_type;location;lat;lon;timestamp;P1;durP1;ratioP1;P2;durP2;ratioP2
14847;SDS011;7516;43.570;1.448;2022-11-18T00:01:17;1.77;;;0.90;;
14847;SDS011;7516;43.570;1.448;2022-11-18T00:03:46;3.80;;;1.27;;
14847;SDS011;7516;43.570;1.448;2022-11-18T00:06:15;3.43;;;1.07;;
14847;SDS011;7516;43.570;1.448;2022-11-18T00:08:43;3.87;;;1.00;;
14847;SDS011;7516;43.570;1.448;2022-11-18T00:11:12;4.50;;;1.47;;
14847;SDS011;7516;43.570;1.448;2022-11-18T00:14:01;8.70;;;1.97;;
14847;SDS011;7516;43.570;1.448;2022-11-18T00:16:43;2.63;;;1.20;;
14847;SDS011;7516;43.570;1.448;2022-11-18T00:19:11;3.60;;;1.30;;
14847;SDS011;7516;43.570;1.448;2022-11-18T00:21:39;2.60;;;1.13;;
14847;SDS011;7516;43.570;1.448;2022-11-18T00:24:06;2.83;;;1.27;;
14847;SDS011;7516;43.570;1.448;2022-11-18T00:26:36;5.43;;;1.30;;
14847;SDS011;7516;43.570;1.448;2022-11-18T00:29:03;6.40;;;1.30;;
14847;SDS011;7516;43.570;1.448;2022-11-18T00:31:31;4.17;;;1.20;;
14847;SDS011;7516;43.570;1.448;2022-11-18T00:33:58;4.23;;;1.20;;
14847;SDS011;7516;43.570;1.448;2022-11-18T00:36:26;4.17;;;1.10;;
14847;SDS011;7516;43.570;1.448;2022-11-18T00:38:54;3.50;;;1.00;;
14847;SDS011;7516;43.570;1.448;2022-11-18T00:41:22;3.93;;;1.20;;
14847;SDS011;7516;43.570;1.448;2022-11-18T00:44:11;3.93;;;1.20;;
14847;SDS011;7516;43.570;1.448;2022-11-18T00:46:38;6.47;;;1.33;;
14847;SDS011;7516;43.570;1.448;2022-11-18T00:49:05;3.77;;;1.00;;
14847;SDS011;7516;43.570;1.448;2022-11-18T00:51:33;3.00;;;0.80;;
14847;SDS011;7516;43.570;1.448;2022-11-18T00:54:00;3.00;;;1.07;;
14847;SDS011;7516;43.570;1.448;2022-11-18T00:56:28;3.47;;;1.03;;
14847;SDS011;7516;43.570;1.448;2022-11-18T00:58:56;3.63;;;0.93;;
14847;SDS011;7516;43.570;1.448;2022-11-18T01:01:25;4.57;;;1.43;;
14847;SDS011;7516;43.570;1.448;2022-11-18T01:03:52;2.37;;;0.77;;
14847;SDS011;7516;43.570;1.448;2022-11-18T01:06:20;3.10;;;0.87;;
14847;SDS011;7516;43.570;1.448;2022-11-18T01:08:47;2.50;;;0.80;;
14847;SDS011;7516;43.570;1.448;2022-11-18T01:11:15;4.17;;;0.90;;
14847;SDS011;7516;43.570;1.448;2022-11-18T01:14:00;2.90;;;0.63;;
14847;SDS011;7516;43.570;1.448;2022-11-18T01:16:29;3.83;;;0.70;;
14847;SDS011;7516;43.570;1.448;2022-11-18T01:18:57;3.07;;;0.90;;
14847;SDS011;7516;43.570;1.448;2022-11-18T01:21:24;3.33;;;0.90;;
14847;SDS011;7516;43.570;1.448;2022-11-18T01:23:53;2.73;;;0.80;;
14847;SDS011;7516;43.570;1.448;2022-11-18T01:26:20;3.87;;;0.90;;
14847;SDS011;7516;43.570;1.448;2022-11-18T01:28:48;4.60;;;0.90;;
14847;SDS011;7516;43.570;1.448;2022-11-18T01:31:17;3.17;;;0.87;;
14847;SDS011;7516;43.570;1.448;2022-11-18T01:33:46;2.73;;;0.80;;
14847;SDS011;7516;43.570;1.448;2022-11-18T01:36:14;4.50;;;0.97;;
14847;SDS011;7516;43.570;1.448;2022-11-18T01:38:43;3.63;;;0.70;;
14847;SDS011;7516;43.570;1.448;2022-11-18T01:41:11;2.87;;;0.70;;
14847;SDS011;7516;43.570;1.448;2022-11-18T01:43:48;1.97;;;0.83;;
14847;SDS011;7516;43.570;1.448;2022-11-18T01:46:18;2.80;;;0.70;;
14847;SDS011;7516;43.570;1.448;2022-11-18T01:48:49;2.27;;;0.67;;
14847;SDS011;7516;43.570;1.448;2022-11-18T01:51:22;2.73;;;0.70;;
14847;SDS011;7516;43.570;1.448;2022-11-18T01:53:56;2.17;;;0.60;;
14847;SDS011;7516;43.570;1.448;2022-11-18T01:56:30;3.67;;;0.97;;
14847;SDS011;7516;43.570;1.448;2022-11-18T01:59:02;5.23;;;1.00;;
14847;SDS011;7516;43.570;1.448;2022-11-18T02:01:33;1.93;;;0.70;;
14847;SDS011;7516;43.570;1.448;2022-11-18T02:04:02;3.33;;;0.90;;
14847;SDS011;7516;43.570;1.448;2022-11-18T02:06:29;4.20;;;0.80;;
14847;SDS011;7516;43.570;1.448;2022-11-18T02:08:57;3.27;;;0.83;;
14847;SDS011;7516;43.570;1.448;2022-11-18T02:11:26;3.47;;;0.70;;
14847;SDS011;7516;43.570;1.448;2022-11-18T02:14:11;2.00;;;0.60;;
14847;SDS011;7516;43.570;1.448;2022-11-18T02:16:45;2.40;;;0.50;;
14847;SDS011;7516;43.570;1.448;2022-11-18T02:19:45;3.17;;;0.80;;
14847;SDS011;7516;43.570;1.448;2022-11-18T02:22:33;1.23;;;0.57;;
14847;SDS011;7516;43.570;1.448;2022-11-18T02:25:14;2.40;;;0.60;;
14847;SDS011;7516;43.570;1.448;2022-11-18T02:27:57;2.60;;;0.60;;
14847;SDS011;7516;43.570;1.448;2022-11-18T02:30:46;2.37;;;0.73;;
14847;SDS011;7516;43.570;1.448;2022-11-18T02:33:21;2.13;;;0.70;;
14847;SDS011;7516;43.570;1.448;2022-11-18T02:35:55;1.73;;;0.60;;
14847;SDS011;7516;43.570;1.448;2022-11-18T02:38:28;2.13;;;0.77;;
14847;SDS011;7516;43.570;1.448;2022-11-18T02:41:02;1.00;;;0.60;;
14847;SDS011;7516;43.570;1.448;2022-11-18T02:43:33;2.73;;;0.60;;
14847;SDS011;7516;43.570;1.448;2022-11-18T02:46:07;2.77;;;0.57;;
14847;SDS011;7516;43.570;1.448;2022-11-18T02:48:39;2.37;;;0.70;;
14847;SDS011;7516;43.570;1.448;2022-11-18T02:51:10;7.70;;;1.60;;
14847;SDS011;7516;43.570;1.448;2022-11-18T02:53:40;2.33;;;0.60;;
14847;SDS011;7516;43.570;1.448;2022-11-18T02:56:08;4.17;;;0.70;;
14847;SDS011;7516;43.570;1.448;2022-11-18T02:58:37;1.83;;;0.60;;
14847;SDS011;7516;43.570;1.448;2022-11-18T03:01:04;3.00;;;0.80;;
14847;SDS011;7516;43.570;1.448;2022-11-18T03:03:41;2.37;;;0.50;;
14847;SDS011;7516;43.570;1.448;2022-11-18T03:06:10;3.90;;;0.63;;
14847;SDS011;7516;43.570;1.448;2022-11-18T03:08:51;1.00;;;0.40;;
14847;SDS011;7516;43.570;1.448;2022-11-18T03:11:24;1.93;;;0.53;;
14847;SDS011;7516;43.570;1.448;2022-11-18T03:14:07;2.73;;;0.70;;
14847;SDS011;7516;43.570;1.448;2022-11-18T03:16:43;2.90;;;0.90;;
14847;SDS011;7516;43.570;1.448;2022-11-18T03:19:19;2.97;;;0.63;;
14847;SDS011;7516;43.570;1.448;2022-11-18T03:21:55;3.63;;;0.60;;
14847;SDS011;7516;43.570;1.448;2022-11-18T03:24:29;3.53;;;0.80;;
14847;SDS011;7516;43.570;1.448;2022-11-18T03:27:02;4.07;;;0.77;;
14847;SDS011;7516;43.570;1.448;2022-11-18T03:29:37;2.67;;;0.70;;
14847;SDS011;7516;43.570;1.448;2022-11-18T03:32:10;2.23;;;0.57;;
14847;SDS011;7516;43.570;1.448;2022-11-18T03:34:44;2.47;;;0.63;;
14847;SDS011;7516;43.570;1.448;2022-11-18T03:37:15;3.47;;;0.70;;
14847;SDS011;7516;43.570;1.448;2022-11-18T03:39:44;2.13;;;0.77;;
14847;SDS011;7516;43.570;1.448;2022-11-18T03:42:18;5.30;;;0.67;;
14847;SDS011;7516;43.570;1.448;2022-11-18T03:44:50;2.80;;;0.70;;
14847;SDS011;7516;43.570;1.448;2022-11-18T03:47:24;1.60;;;0.60;;
14847;SDS011;7516;43.570;1.448;2022-11-18T03:49:56;2.37;;;0.63;;
14847;SDS011;7516;43.570;1.448;2022-11-18T03:52:27;2.63;;;0.63;;
14847;SDS011;7516;43.570;1.448;2022-11-18T03:54:59;2.77;;;0.60;;
14847;SDS011;7516;43.570;1.448;2022-11-18T03:57:33;1.80;;;0.63;;
14847;SDS011;7516;43.570;1.448;2022-11-18T04:00:09;1.43;;;0.80;;
14847;SDS011;7516;43.570;1.448;2022-11-18T04:02:40;2.70;;;0.60;;
14847;SDS011;7516;43.570;1.448;2022-11-18T04:05:11;1.63;;;0.63;;
14847;SDS011;7516;43.570;1.448;2022-11-18T04:07:41;2.43;;;0.70;;
14847;SDS011;7516;43.570;1.448;2022-11-18T04:10:17;2.40;;;0.90;;
14847;SDS011;7516;43.570;1.448;2022-11-18T04:12:50;2.43;;;0.73;;
14847;SDS011;7516;43.570;1.448;2022-11-18T04:15:25;2.90;;;0.60;;
14847;SDS011;7516;43.570;1.448;2022-11-18T04:17:54;1.63;;;0.67;;
14847;SDS011;7516;43.570;1.448;2022-11-18T04:20:21;1.37;;;0.60;;
14847;SDS011;7516;43.570;1.448;2022-11-18T04:22:50;2.03;;;0.50;;
14847;SDS011;7516;43.570;1.448;2022-11-18T04:25:17;2.50;;;0.50;;
14847;SDS011;7516;43.570;1.448;2022-11-18T04:27:45;2.27;;;0.63;;
14847;SDS011;7516;43.570;1.448;2022-11-18T04:30:12;1.67;;;0.70;;
14847;SDS011;7516;43.570;1.448;2022-11-18T04:32:40;1.70;;;0.60;;
14847;SDS011;7516;43.570;1.448;2022-11-18T04:35:09;3.67;;;0.50;;
14847;SDS011;7516;43.570;1.448;2022-11-18T04:37:36;4.53;;;0.60;;
14847;SDS011;7516;43.570;1.448;2022-11-18T04:40:04;1.70;;;0.60;;
14847;SDS011;7516;43.570;1.448;2022-11-18T04:42:32;1.90;;;0.60;;
14847;SDS011;7516;43.570;1.448;2022-11-18T04:45:00;1.30;;;0.50;;
14847;SDS011;7516;43.570;1.448;2022-11-18T04:47:27;1.87;;;0.70;;
14847;SDS011;7516;43.570;1.448;2022-11-18T04:49:55;2.07;;;0.50;;
14847;SDS011;7516;43.570;1.448;2022-11-18T04:52:24;1.53;;;0.50;;
14847;SDS011;7516;43.570;1.448;2022-11-18T04:54:51;1.97;;;0.40;;
14847;SDS011;7516;43.570;1.448;2022-11-18T04:57:18;2.90;;;0.67;;
14847;SDS011;7516;43.570;1.448;2022-11-18T04:59:46;0.90;;;0.50;;
14847;SDS011;7516;43.570;1.448;2022-11-18T05:02:14;0.70;;;0.40;;
14847;SDS011;7516;43.570;1.448;2022-11-18T05:04:41;1.50;;;0.40;;
14847;SDS011;7516;43.570;1.448;2022-11-18T05:07:11;2.00;;;0.60;;
14847;SDS011;7516;43.570;1.448;2022-11-18T05:09:41;0.87;;;0.40;;
14847;SDS011;7516;43.570;1.448;2022-11-18T05:12:12;1.63;;;0.57;;
14847;SDS011;7516;43.570;1.448;2022-11-18T05:14:57;1.63;;;0.40;;
14847;SDS011;7516;43.570;1.448;2022-11-18T05:17:25;2.10;;;0.47;;
14847;SDS011;7516;43.570;1.448;2022-11-18T05:19:53;1.57;;;0.60;;
14847;SDS011;7516;43.570;1.448;2022-11-18T05:22:20;1.63;;;0.40;;
14847;SDS011;7516;43.570;1.448;2022-11-18T05:24:49;2.97;;;0.60;;
14847;SDS011;7516;43.570;1.448;2022-11-18T05:27:17;1.13;;;0.47;;
14847;SDS011;7516;43.570;1.448;2022-11-18T05:29:44;1.53;;;0.60;;
14847;SDS011;7516;43.570;1.448;2022-11-18T05:32:12;1.37;;;0.53;;
14847;SDS011;7516;43.570;1.448;2022-11-18T05:34:39;3.80;;;0.60;;
14847;SDS011;7516;43.570;1.448;2022-11-18T05:37:07;1.37;;;0.50;;
14847;SDS011;7516;43.570;1.448;2022-11-18T05:39:35;1.80;;;0.50;;
14847;SDS011;7516;43.570;1.448;2022-11-18T05:42:04;2.30;;;0.60;;
14847;SDS011;7516;43.570;1.448;2022-11-18T05:44:46;1.17;;;0.43;;
14847;SDS011;7516;43.570;1.448;2022-11-18T05:47:14;2.53;;;0.47;;
14847;SDS011;7516;43.570;1.448;2022-11-18T05:49:42;1.97;;;0.47;;
14847;SDS011;7516;43.570;1.448;2022-11-18T05:52:09;1.70;;;0.40;;
14847;SDS011;7516;43.570;1.448;2022-11-18T05:54:37;1.23;;;0.40;;
14847;SDS011;7516;43.570;1.448;2022-11-18T05:57:08;2.90;;;0.67;;
14847;SDS011;7516;43.570;1.448;2022-11-18T05:59:36;1.23;;;0.53;;
14847;SDS011;7516;43.570;1.448;2022-11-18T06:02:04;1.33;;;0.50;;
14847;SDS011;7516;43.570;1.448;2022-11-18T06:04:38;1.27;;;0.50;;
14847;SDS011;7516;43.570;1.448;2022-11-18T06:07:11;0.93;;;0.40;;
14847;SDS011;7516;43.570;1.448;2022-11-18T06:09:42;1.50;;;0.47;;
14847;SDS011;7516;43.570;1.448;2022-11-18T06:12:15;2.17;;;0.50;;
14847;SDS011;7516;43.570;1.448;2022-11-18T06:14:46;3.43;;;0.70;;
14847;SDS011;7516;43.570;1.448;2022-11-18T06:17:18;2.07;;;0.53;;
14847;SDS011;7516;43.570;1.448;2022-11-18T06:19:49;1.70;;;0.50;;
14847;SDS011;7516;43.570;1.448;2022-11-18T06:22:18;0.67;;;0.40;;
14847;SDS011;7516;43.570;1.448;2022-11-18T06:24:46;2.77;;;0.50;;
14847;SDS011;7516;43.570;1.448;2022-11-18T06:27:14;3.53;;;0.50;;
14847;SDS011;7516;43.570;1.448;2022-11-18T06:29:43;1.67;;;0.60;;
14847;SDS011;7516;43.570;1.448;2022-11-18T06:32:10;1.67;;;0.67;;
14847;SDS011;7516;43.570;1.448;2022-11-18T06:34:38;1.90;;;0.57;;
14847;SDS011;7516;43.570;1.448;2022-11-18T06:37:11;2.23;;;0.60;;
14847;SDS011;7516;43.570;1.448;2022-11-18T06:39:39;1.27;;;0.40;;
14847;SDS011;7516;43.570;1.448;2022-11-18T06:42:06;1.33;;;0.40;;
14847;SDS011;7516;43.570;1.448;2022-11-18T06:44:35;2.53;;;0.60;;
14847;SDS011;7516;43.570;1.448;2022-11-18T06:47:02;3.20;;;0.40;;
14847;SDS011;7516;43.570;1.448;2022-11-18T06:49:30;0.67;;;0.37;;
14847;SDS011;7516;43.570;1.448;2022-11-18T06:51:57;1.10;;;0.50;;
14847;SDS011;7516;43.570;1.448;2022-11-18T06:54:25;1.30;;;0.57;;
14847;SDS011;7516;43.570;1.448;2022-11-18T06:56:52;0.83;;;0.53;;
14847;SDS011;7516;43.570;1.448;2022-11-18T06:59:19;3.27;;;0.50;;
14847;SDS011;7516;43.570;1.448;2022-11-18T07:01:49;2.17;;;0.87;;
14847;SDS011;7516;43.570;1.448;2022-11-18T07:04:18;1.23;;;0.40;;
14847;SDS011;7516;43.570;1.448;2022-11-18T07:06:45;1.53;;;0.50;;
14847;SDS011;7516;43.570;1.448;2022-11-18T07:09:13;1.60;;;0.50;;
14847;SDS011;7516;43.570;1.448;2022-11-18T07:11:41;1.73;;;0.70;;
14847;SDS011;7516;43.570;1.448;2022-11-18T07:14:09;1.00;;;0.53;;
14847;SDS011;7516;43.570;1.448;2022-11-18T07:16:38;1.00;;;0.50;;
14847;SDS011;7516;43.570;1.448;2022-11-18T07:19:10;2.27;;;0.60;;
14847;SDS011;7516;43.570;1.448;2022-11-18T07:21:38;1.70;;;0.50;;
14847;SDS011;7516;43.570;1.448;2022-11-18T07:24:07;1.57;;;0.50;;
14847;SDS011;7516;43.570;1.448;2022-11-18T07:26:37;1.43;;;0.40;;
14847;SDS011;7516;43.570;1.448;2022-11-18T07:29:05;1.17;;;0.40;;
14847;SDS011;7516;43.570;1.448;2022-11-18T07:31:33;2.23;;;0.50;;
14847;SDS011;7516;43.570;1.448;2022-11-18T07:34:03;2.00;;;0.50;;
14847;SDS011;7516;43.570;1.448;2022-11-18T07:36:33;1.17;;;0.33;;
14847;SDS011;7516;43.570;1.448;2022-11-18T07:39:00;1.00;;;0.57;;
14847;SDS011;7516;43.570;1.448;2022-11-18T07:41:29;0.97;;;0.50;;
14847;SDS011;7516;43.570;1.448;2022-11-18T07:43:58;1.00;;;0.47;;
14847;SDS011;7516;43.570;1.448;2022-11-18T07:46:27;1.37;;;0.50;;
14847;SDS011;7516;43.570;1.448;2022-11-18T07:48:57;1.37;;;0.50;;
14847;SDS011;7516;43.570;1.448;2022-11-18T07:51:26;1.20;;;0.60;;
14847;SDS011;7516;43.570;1.448;2022-11-18T07:53:56;0.57;;;0.37;;
14847;SDS011;7516;43.570;1.448;2022-11-18T07:56:24;1.70;;;0.60;;
14847;SDS011;7516;43.570;1.448;2022-11-18T07:58:51;2.30;;;0.43;;
14847;SDS011;7516;43.570;1.448;2022-11-18T08:01:20;2.53;;;0.33;;
14847;SDS011;7516;43.570;1.448;2022-11-18T08:03:48;2.37;;;0.50;;
14847;SDS011;7516;43.570;1.448;2022-11-18T08:06:17;1.73;;;0.57;;
14847;SDS011;7516;43.570;1.448;2022-11-18T08:08:45;2.03;;;0.50;;
14847;SDS011;7516;43.570;1.448;2022-11-18T08:11:14;2.23;;;0.57;;
14847;SDS011;7516;43.570;1.448;2022-11-18T08:13:43;0.50;;;0.30;;
14847;SDS011;7516;43.570;1.448;2022-11-18T08:16:11;2.43;;;0.57;;
14847;SDS011;7516;43.570;1.448;2022-11-18T08:18:40;0.80;;;0.40;;
14847;SDS011;7516;43.570;1.448;2022-11-18T08:21:08;1.00;;;0.40;;
14847;SDS011;7516;43.570;1.448;2022-11-18T08:23:36;2.50;;;0.40;;
14847;SDS011;7516;43.570;1.448;2022-11-18T08:26:05;1.40;;;0.50;;
14847;SDS011;7516;43.570;1.448;2022-11-18T08:28:35;1.30;;;0.50;;
14847;SDS011;7516;43.570;1.448;2022-11-18T08:31:07;2.80;;;0.70;;
14847;SDS011;7516;43.570;1.448;2022-11-18T08:33:36;3.17;;;0.70;;
14847;SDS011;7516;43.570;1.448;2022-11-18T08:36:04;1.50;;;0.70;;
14847;SDS011;7516;43.570;1.448;2022-11-18T08:38:33;3.23;;;0.43;;
14847;SDS011;7516;43.570;1.448;2022-11-18T08:41:00;1.60;;;0.60;;
14847;SDS011;7516;43.570;1.448;2022-11-18T08:43:30;1.47;;;0.53;;
14847;SDS011;7516;43.570;1.448;2022-11-18T08:45:59;4.10;;;1.00;;
14847;SDS011;7516;43.570;1.448;2022-11-18T08:48:26;2.27;;;0.70;;
14847;SDS011;7516;43.570;1.448;2022-11-18T08:50:54;2.23;;;0.70;;
14847;SDS011;7516;43.570;1.448;2022-11-18T08:53:22;3.43;;;0.70;;
14847;SDS011;7516;43.570;1.448;2022-11-18T08:55:53;2.57;;;0.70;;
14847;SDS011;7516;43.570;1.448;2022-11-18T08:58:22;2.40;;;0.60;;
14847;SDS011;7516;43.570;1.448;2022-11-18T09:00:49;1.57;;;0.83;;
14847;SDS011;7516;43.570;1.448;2022-11-18T09:03:18;3.50;;;1.30;;
14847;SDS011;7516;43.570;1.448;2022-11-18T09:05:46;1.87;;;0.80;;
14847;SDS011;7516;43.570;1.448;2022-11-18T09:08:14;0.90;;;0.63;;
14847;SDS011;7516;43.570;1.448;2022-11-18T09:10:41;1.90;;;0.73;;
14847;SDS011;7516;43.570;1.448;2022-11-18T09:13:09;1.63;;;0.60;;
14847;SDS011;7516;43.570;1.448;2022-11-18T09:15:36;2.63;;;1.03;;
14847;SDS011;7516;43.570;1.448;2022-11-18T09:18:04;2.73;;;0.83;;
14847;SDS011;7516;43.570;1.448;2022-11-18T09:20:33;2.53;;;1.03;;
14847;SDS011;7516;43.570;1.448;2022-11-18T09:23:01;5.87;;;1.13;;
14847;SDS011;7516;43.570;1.448;2022-11-18T09:25:29;5.67;;;1.57;;
14847;SDS011;7516;43.570;1.448;2022-11-18T09:27:56;3.80;;;1.13;;
14847;SDS011;7516;43.570;1.448;2022-11-18T09:30:24;3.13;;;1.20;;
14847;SDS011;7516;43.570;1.448;2022-11-18T09:32:51;5.00;;;1.70;;
14847;SDS011;7516;43.570;1.448;2022-11-18T09:35:19;3.93;;;1.90;;
14847;SDS011;7516;43.570;1.448;2022-11-18T09:37:48;5.70;;;2.23;;
14847;SDS011;7516;43.570;1.448;2022-11-18T09:40:15;5.20;;;2.10;;
14847;SDS011;7516;43.570;1.448;2022-11-18T09:42:47;6.30;;;2.57;;
14847;SDS011;7516;43.570;1.448;2022-11-18T09:45:23;6.27;;;2.17;;
14847;SDS011;7516;43.570;1.448;2022-11-18T09:47:55;4.07;;;1.70;;
14847;SDS011;7516;43.570;1.448;2022-11-18T09:50:24;2.73;;;1.47;;
14847;SDS011;7516;43.570;1.448;2022-11-18T09:52:55;4.23;;;1.50;;
14847;SDS011;7516;43.570;1.448;2022-11-18T09:55:33;2.83;;;1.13;;
14847;SDS011;7516;43.570;1.448;2022-11-18T09:58:03;2.10;;;1.17;;
14847;SDS011;7516;43.570;1.448;2022-11-18T10:00:32;3.17;;;1.00;;
14847;SDS011;7516;43.570;1.448;2022-11-18T10:03:00;3.50;;;1.00;;
14847;SDS011;7516;43.570;1.448;2022-11-18T10:05:31;4.00;;;1.13;;
14847;SDS011;7516;43.570;1.448;2022-11-18T10:08:11;4.97;;;1.10;;
14847;SDS011;7516;43.570;1.448;2022-11-18T10:10:49;2.17;;;0.60;;
14847;SDS011;7516;43.570;1.448;2022-11-18T10:13:25;4.43;;;0.80;;
14847;SDS011;7516;43.570;1.448;2022-11-18T10:16:03;3.03;;;0.87;;
14847;SDS011;7516;43.570;1.448;2022-11-18T10:18:46;3.33;;;0.80;;
14847;SDS011;7516;43.570;1.448;2022-11-18T10:21:21;2.63;;;0.90;;
14847;SDS011;7516;43.570;1.448;2022-11-18T10:24:00;2.70;;;0.97;;
14847;SDS011;7516;43.570;1.448;2022-11-18T10:26:34;1.67;;;0.60;;
14847;SDS011;7516;43.570;1.448;2022-11-18T10:29:03;3.73;;;0.70;;
14847;SDS011;7516;43.570;1.448;2022-11-18T10:31:35;2.97;;;0.80;;
14847;SDS011;7516;43.570;1.448;2022-11-18T10:34:03;2.73;;;0.60;;
14847;SDS011;7516;43.570;1.448;2022-11-18T10:36:31;2.00;;;0.60;;
14847;SDS011;7516;43.570;1.448;2022-11-18T10:39:05;3.20;;;0.70;;
14847;SDS011;7516;43.570;1.448;2022-11-18T10:41:38;3.73;;;0.80;;
14847;SDS011;7516;43.570;1.448;2022-11-18T10:44:30;2.97;;;0.80;;
14847;SDS011;7516;43.570;1.448;2022-11-18T10:49:51;5.57;;;1.60;;
14847;SDS011;7516;43.570;1.448;2022-11-18T10:52:19;3.20;;;0.77;;
14847;SDS011;7516;43.570;1.448;2022-11-18T10:57:42;2.77;;;0.70;;
14847;SDS011;7516;43.570;1.448;2022-11-18T11:03:22;3.33;;;0.90;;
14847;SDS011;7516;43.570;1.448;2022-11-18T11:08:54;3.90;;;1.30;;
14847;SDS011;7516;43.570;1.448;2022-11-18T11:11:24;3.07;;;0.80;;
14847;SDS011;7516;43.570;1.448;2022-11-18T11:13:56;2.37;;;0.77;;
14847;SDS011;7516;43.570;1.448;2022-11-18T11:16:36;2.13;;;0.70;;
14847;SDS011;7516;43.570;1.448;2022-11-18T11:19:09;3.00;;;0.73;;
14847;SDS011;7516;43.570;1.448;2022-11-18T11:21:39;2.57;;;0.60;;
14847;SDS011;7516;43.570;1.448;2022-11-18T11:24:10;3.60;;;1.20;;
14847;SDS011;7516;43.570;1.448;2022-11-18T11:26:40;6.23;;;0.77;;
14847;SDS011;7516;43.570;1.448;2022-11-18T11:29:19;6.03;;;0.70;;
14847;SDS011;7516;43.570;1.448;2022-11-18T11:32:02;6.10;;;0.80;;
14847;SDS011;7516;43.570;1.448;2022-11-18T11:34:37;3.20;;;0.77;;
14847;SDS011;7516;43.570;1.448;2022-11-18T11:37:12;3.13;;;1.03;;
14847;SDS011;7516;43.570;1.448;2022-11-18T11:39:52;2.63;;;0.70;;
14847;SDS011;7516;43.570;1.448;2022-11-18T11:42:34;1.67;;;0.60;;
14847;SDS011;7516;43.570;1.448;2022-11-18T11:45:18;2.47;;;0.67;;
14847;SDS011;7516;43.570;1.448;2022-11-18T11:50:51;2.00;;;0.63;;
14847;SDS011;7516;43.570;1.448;2022-11-18T11:53:26;4.87;;;0.97;;
14847;SDS011;7516;43.570;1.448;2022-11-18T11:56:05;3.97;;;0.80;;
14847;SDS011;7516;43.570;1.448;2022-11-18T11:58:47;3.73;;;0.90;;
14847;SDS011;7516;43.570;1.448;2022-11-18T12:01:33;2.93;;;0.70;;
14847;SDS011;7516;43.570;1.448;2022-11-18T12:04:09;1.80;;;0.80;;
14847;SDS011;7516;43.570;1.448;2022-11-18T12:06:44;4.07;;;0.73;;
14847;SDS011;7516;43.570;1.448;2022-11-18T12:09:16;4.90;;;0.90;;
14847;SDS011;7516;43.570;1.448;2022-11-18T12:11:53;2.03;;;0.80;;
14847;SDS011;7516;43.570;1.448;2022-11-18T12:14:26;4.40;;;0.90;;
14847;SDS011;7516;43.570;1.448;2022-11-18T12:17:05;4.73;;;1.17;;
14847;SDS011;7516;43.570;1.448;2022-11-18T12:19:39;5.90;;;1.10;;
14847;SDS011;7516;43.570;1.448;2022-11-18T12:22:07;3.07;;;1.27;;
14847;SDS011;7516;43.570;1.448;2022-11-18T12:24:35;2.80;;;1.07;;
14847;SDS011;7516;43.570;1.448;2022-11-18T12:27:05;4.77;;;1.30;;
14847;SDS011;7516;43.570;1.448;2022-11-18T12:29:41;1.73;;;0.80;;
14847;SDS011;7516;43.570;1.448;2022-11-18T12:32:31;1.40;;;1.27;;
14847;SDS011;7516;43.570;1.448;2022-11-18T12:35:20;2.60;;;0.90;;
14847;SDS011;7516;43.570;1.448;2022-11-18T12:37:59;4.53;;;1.10;;
14847;SDS011;7516;43.570;1.448;2022-11-18T12:52:46;5.47;;;1.13;;
14847;SDS011;7516;43.570;1.448;2022-11-18T12:55:18;5.07;;;1.63;;
14847;SDS011;7516;43.570;1.448;2022-11-18T12:57:51;4.50;;;1.10;;
14847;SDS011;7516;43.570;1.448;2022-11-18T13:00:32;3.77;;;0.80;;
14847;SDS011;7516;43.570;1.448;2022-11-18T13:03:23;2.77;;;1.00;;
14847;SDS011;7516;43.570;1.448;2022-11-18T13:05:57;4.17;;;1.20;;
14847;SDS011;7516;43.570;1.448;2022-11-18T13:08:29;3.20;;;1.20;;
14847;SDS011;7516;43.570;1.448;2022-11-18T13:11:08;5.30;;;1.63;;
14847;SDS011;7516;43.570;1.448;2022-11-18T13:13:58;4.67;;;1.03;;
14847;SDS011;7516;43.570;1.448;2022-11-18T13:16:45;2.33;;;1.37;;
14847;SDS011;7516;43.570;1.448;2022-11-18T13:19:31;2.17;;;0.80;;
14847;SDS011;7516;43.570;1.448;2022-11-18T13:21:59;3.17;;;1.20;;
14847;SDS011;7516;43.570;1.448;2022-11-18T13:24:47;4.60;;;1.33;;
14847;SDS011;7516;43.570;1.448;2022-11-18T13:27:24;3.70;;;1.20;;
14847;SDS011;7516;43.570;1.448;2022-11-18T13:30:01;3.43;;;1.20;;
14847;SDS011;7516;43.570;1.448;2022-11-18T13:32:32;3.23;;;1.00;;
14847;SDS011;7516;43.570;1.448;2022-11-18T13:35:04;3.07;;;0.90;;
14847;SDS011;7516;43.570;1.448;2022-11-18T13:37:37;2.20;;;0.80;;
14847;SDS011;7516;43.570;1.448;2022-11-18T13:40:18;2.93;;;1.03;;
14847;SDS011;7516;43.570;1.448;2022-11-18T13:42:48;5.77;;;1.13;;
14847;SDS011;7516;43.570;1.448;2022-11-18T13:45:16;3.73;;;1.07;;
14847;SDS011;7516;43.570;1.448;2022-11-18T13:47:45;3.53;;;0.93;;
14847;SDS011;7516;43.570;1.448;2022-11-18T13:50:16;2.07;;;0.73;;
14847;SDS011;7516;43.570;1.448;2022-11-18T13:52:50;4.67;;;1.07;;
14847;SDS011;7516;43.570;1.448;2022-11-18T13:55:26;3.63;;;0.90;;
14847;SDS011;7516;43.570;1.448;2022-11-18T13:57:59;4.60;;;1.00;;
14847;SDS011;7516;43.570;1.448;2022-11-18T14:00:29;3.93;;;1.70;;
14847;SDS011;7516;43.570;1.448;2022-11-18T14:03:00;6.07;;;1.10;;
14847;SDS011;7516;43.570;1.448;2022-11-18T14:05:30;4.47;;;1.20;;
14847;SDS011;7516;43.570;1.448;2022-11-18T14:08:02;4.33;;;1.10;;
14847;SDS011;7516;43.570;1.448;2022-11-18T14:10:38;2.70;;;1.00;;
14847;SDS011;7516;43.570;1.448;2022-11-18T14:13:16;3.67;;;1.07;;
14847;SDS011;7516;43.570;1.448;2022-11-18T14:15:47;3.57;;;0.87;;
14847;SDS011;7516;43.570;1.448;2022-11-18T14:18:19;2.30;;;0.90;;
14847;SDS011;7516;43.570;1.448;2022-11-18T14:20:53;5.70;;;1.23;;
14847;SDS011;7516;43.570;1.448;2022-11-18T14:23:21;2.03;;;0.80;;
14847;SDS011;7516;43.570;1.448;2022-11-18T14:25:55;4.13;;;1.17;;
14847;SDS011;7516;43.570;1.448;2022-11-18T14:28:24;4.60;;;1.20;;
14847;SDS011;7516;43.570;1.448;2022-11-18T14:30:55;3.60;;;0.90;;
14847;SDS011;7516;43.570;1.448;2022-11-18T14:33:28;2.87;;;1.53;;
14847;SDS011;7516;43.570;1.448;2022-11-18T14:35:56;4.03;;;1.20;;
14847;SDS011;7516;43.570;1.448;2022-11-18T14:38:36;4.03;;;1.00;;
14847;SDS011;7516;43.570;1.448;2022-11-18T14:41:12;3.33;;;1.07;;
14847;SDS011;7516;43.570;1.448;2022-11-18T14:44:01;5.20;;;1.10;;
14847;SDS011;7516;43.570;1.448;2022-11-18T14:46:28;3.50;;;1.10;;
14847;SDS011;7516;43.570;1.448;2022-11-18T14:48:56;6.67;;;1.27;;
14847;SDS011;7516;43.570;1.448;2022-11-18T14:51:27;3.43;;;1.10;;
14847;SDS011;7516;43.570;1.448;2022-11-18T14:53:54;3.60;;;1.07;;
14847;SDS011;7516;43.570;1.448;2022-11-18T14:56:25;3.30;;;1.23;;
14847;SDS011;7516;43.570;1.448;2022-11-18T14:58:54;3.43;;;0.90;;
14847;SDS011;7516;43.570;1.448;2022-11-18T15:01:22;3.10;;;0.90;;
14847;SDS011;7516;43.570;1.448;2022-11-18T15:03:51;3.87;;;1.00;;
14847;SDS011;7516;43.570;1.448;2022-11-18T15:06:19;5.57;;;1.13;;
14847;SDS011;7516;43.570;1.448;2022-11-18T15:08:49;3.73;;;0.80;;
14847;SDS011;7516;43.570;1.448;2022-11-18T15:11:18;5.07;;;1.10;;
14847;SDS011;7516;43.570;1.448;2022-11-18T15:13:47;4.37;;;1.20;;
14847;SDS011;7516;43.570;1.448;2022-11-18T15:16:16;2.40;;;0.90;;
14847;SDS011;7516;43.570;1.448;2022-11-18T15:18:46;2.33;;;0.83;;
14847;SDS011;7516;43.570;1.448;2022-11-18T15:21:14;4.37;;;1.13;;
14847;SDS011;7516;43.570;1.448;2022-11-18T15:23:42;2.50;;;0.80;;
14847;SDS011;7516;43.570;1.448;2022-11-18T15:26:13;2.87;;;0.73;;
14847;SDS011;7516;43.570;1.448;2022-11-18T15:28:44;2.90;;;0.80;;
14847;SDS011;7516;43.570;1.448;2022-11-18T15:31:14;3.30;;;0.60;;
14847;SDS011;7516;43.570;1.448;2022-11-18T15:33:42;3.43;;;1.10;;
14847;SDS011;7516;43.570;1.448;2022-11-18T15:36:11;1.83;;;0.70;;
14847;SDS011;7516;43.570;1.448;2022-11-18T15:38:40;2.53;;;1.00;;
14847;SDS011;7516;43.570;1.448;2022-11-18T15:41:11;1.63;;;0.63;;
14847;SDS011;7516;43.570;1.448;2022-11-18T15:43:41;2.67;;;0.70;;
14847;SDS011;7516;43.570;1.448;2022-11-18T15:46:11;1.93;;;0.70;;
14847;SDS011;7516;43.570;1.448;2022-11-18T15:48:39;3.37;;;0.90;;
14847;SDS011;7516;43.570;1.448;2022-11-18T15:51:07;2.93;;;1.07;;
14847;SDS011;7516;43.570;1.448;2022-11-18T15:53:35;2.53;;;1.50;;